Topeka, KS (66611)

08:39 PM CDT die 28o September, anno 2016 (GMT -0500)
Pepper Tree Neighborhood | | Change Station

Elev 1007 ft 39.01 °N, 95.70 °W | Updated 8 seconds ago

Clear
Serena
61.4 °F
Feels Like 61.4 °F
N
0.0
Ventus Variabilis Ventus from Aquilo
Gusts 2.5 mph

Hodie
High -- | Low -- °F
--% Chance of Precip.
Yesterday
High -- | Low -- °F
Precip. -- in
Pressio 30.21 in
Visibilitas 10.0 milia passuum
Clouds Serena
Frigus in quo Ros apparet 42 °F
Umor 48%
Rainfall 0.00 in
Snow Depth Not available.
7:16 AM 7:09 PM
Waning Crescent, 4% visible
METAR KFOE 290053Z 36005KT 10SM CLR 16/09 A3021 RMK AO2 SLP228 T01560089
Pressio 30.21 in
Visibilitas 10.0 milia passuum
Clouds Serena
Frigus in quo Ros apparet 42 °F
Umor 48%
Rainfall 0.00 in
Snow Depth Not available.
7:16 AM 7:09 PM
Waning Crescent, 4% visible
METAR KFOE 290053Z 36005KT 10SM CLR 16/09 A3021 RMK AO2 SLP228 T01560089

10-Day Weather Forecast

Almanac

Astronomy

Sep. 28, 2016 Rise Set
Actual Time
Civil Twilight
Nautical Twilight
Astronomical Twilight
Moon
Length Of Visible Light
Length of Day
Tomorrow will be .
, % of the Moon is Illuminated

Today's Extremes

State Highs State Lows

Community

WunderPhotos

Upload Photos

1,942,390 photos uploaded!

WunderBlog® & News

Nearby

Air Quality

  Air Quality AQ Index Pollutant
Not available.

Snow Depth

Station Depth Elevation

Earthquake Activity

City Distance Mag. Time & Date
Minimum magnitude displayed is 2.5.

Coastal Water Temperatures

Locus Calor

Stations

Nearby Weather Stations

Station Location Temp Frigus Venti Frigus in quo Ros apparet Umor Ventus Precip. Elev Renovata Type
                   

Watches & Warnings

There are currently no watches in effect.